sensor_id;sensor_type;location;lat;lon;timestamp;P1;durP1;ratioP1;P2;durP2;ratioP2
64936;SDS011;51452;47.698;19.050;2023-07-31T00:00:30;2.35;;;1.60;;
64936;SDS011;51452;47.698;19.050;2023-07-31T00:02:55;2.38;;;1.60;;
64936;SDS011;51452;47.698;19.050;2023-07-31T00:05:21;2.58;;;1.65;;
64936;SDS011;51452;47.698;19.050;2023-07-31T00:07:46;3.55;;;2.03;;
64936;SDS011;51452;47.698;19.050;2023-07-31T00:10:12;2.55;;;1.55;;
64936;SDS011;51452;47.698;19.050;2023-07-31T00:12:42;2.33;;;1.80;;
64936;SDS011;51452;47.698;19.050;2023-07-31T00:15:10;1.92;;;1.52;;
64936;SDS011;51452;47.698;19.050;2023-07-31T00:17:36;3.03;;;1.70;;
64936;SDS011;51452;47.698;19.050;2023-07-31T00:20:01;2.97;;;1.80;;
64936;SDS011;51452;47.698;19.050;2023-07-31T00:22:27;1.92;;;1.42;;
64936;SDS011;51452;47.698;19.050;2023-07-31T00:24:52;4.05;;;1.63;;
64936;SDS011;51452;47.698;19.050;2023-07-31T00:27:18;2.42;;;1.65;;
64936;SDS011;51452;47.698;19.050;2023-07-31T00:29:43;4.82;;;1.63;;
64936;SDS011;51452;47.698;19.050;2023-07-31T00:32:09;3.38;;;1.60;;
64936;SDS011;51452;47.698;19.050;2023-07-31T00:34:34;2.22;;;1.58;;
64936;SDS011;51452;47.698;19.050;2023-07-31T00:36:59;4.57;;;1.67;;
64936;SDS011;51452;47.698;19.050;2023-07-31T00:39:25;2.50;;;1.65;;
64936;SDS011;51452;47.698;19.050;2023-07-31T00:41:50;4.13;;;1.80;;
64936;SDS011;51452;47.698;19.050;2023-07-31T00:44:15;4.03;;;1.60;;
64936;SDS011;51452;47.698;19.050;2023-07-31T00:46:41;2.65;;;1.60;;
64936;SDS011;51452;47.698;19.050;2023-07-31T00:49:06;3.40;;;1.85;;
64936;SDS011;51452;47.698;19.050;2023-07-31T00:51:32;3.38;;;1.60;;
64936;SDS011;51452;47.698;19.050;2023-07-31T00:53:58;5.15;;;2.03;;
64936;SDS011;51452;47.698;19.050;2023-07-31T00:56:23;3.15;;;1.70;;
64936;SDS011;51452;47.698;19.050;2023-07-31T00:58:50;5.03;;;1.92;;
64936;SDS011;51452;47.698;19.050;2023-07-31T01:01:15;2.85;;;1.92;;
64936;SDS011;51452;47.698;19.050;2023-07-31T01:03:41;5.70;;;2.20;;
64936;SDS011;51452;47.698;19.050;2023-07-31T01:08:53;4.38;;;2.30;;
64936;SDS011;51452;47.698;19.050;2023-07-31T01:11:27;3.63;;;2.25;;
64936;SDS011;51452;47.698;19.050;2023-07-31T01:13:55;3.40;;;2.50;;
64936;SDS011;51452;47.698;19.050;2023-07-31T01:16:21;3.50;;;2.20;;
64936;SDS011;51452;47.698;19.050;2023-07-31T01:18:46;2.97;;;2.33;;
64936;SDS011;51452;47.698;19.050;2023-07-31T01:32:13;2.70;;;1.88;;
64936;SDS011;51452;47.698;19.050;2023-07-31T01:34:39;3.63;;;2.65;;
64936;SDS011;51452;47.698;19.050;2023-07-31T01:37:06;3.42;;;2.03;;
64936;SDS011;51452;47.698;19.050;2023-07-31T01:39:32;4.70;;;2.13;;
64936;SDS011;51452;47.698;19.050;2023-07-31T01:41:57;3.20;;;2.25;;
64936;SDS011;51452;47.698;19.050;2023-07-31T01:44:22;3.47;;;2.10;;
64936;SDS011;51452;47.698;19.050;2023-07-31T01:46:51;4.10;;;2.30;;
64936;SDS011;51452;47.698;19.050;2023-07-31T01:49:16;3.28;;;1.95;;
64936;SDS011;51452;47.698;19.050;2023-07-31T01:51:44;4.95;;;2.00;;
64936;SDS011;51452;47.698;19.050;2023-07-31T01:54:09;4.50;;;1.92;;
64936;SDS011;51452;47.698;19.050;2023-07-31T01:56:36;2.58;;;1.88;;
64936;SDS011;51452;47.698;19.050;2023-07-31T01:59:01;3.20;;;2.20;;
64936;SDS011;51452;47.698;19.050;2023-07-31T02:01:27;3.10;;;2.20;;
64936;SDS011;51452;47.698;19.050;2023-07-31T02:03:52;3.03;;;2.22;;
64936;SDS011;51452;47.698;19.050;2023-07-31T02:06:17;3.97;;;2.20;;
64936;SDS011;51452;47.698;19.050;2023-07-31T02:08:43;3.28;;;2.00;;
64936;SDS011;51452;47.698;19.050;2023-07-31T02:11:08;3.35;;;2.10;;
64936;SDS011;51452;47.698;19.050;2023-07-31T02:13:34;2.75;;;1.88;;
64936;SDS011;51452;47.698;19.050;2023-07-31T02:15:59;4.15;;;1.70;;
64936;SDS011;51452;47.698;19.050;2023-07-31T02:18:25;2.45;;;1.52;;
64936;SDS011;51452;47.698;19.050;2023-07-31T02:20:50;9.13;;;2.15;;
64936;SDS011;51452;47.698;19.050;2023-07-31T02:23:28;3.70;;;1.67;;
64936;SDS011;51452;47.698;19.050;2023-07-31T02:25:55;2.17;;;1.52;;
64936;SDS011;51452;47.698;19.050;2023-07-31T02:28:21;3.70;;;1.50;;
64936;SDS011;51452;47.698;19.050;2023-07-31T02:30:46;3.78;;;1.55;;
64936;SDS011;51452;47.698;19.050;2023-07-31T02:33:12;4.50;;;1.95;;
64936;SDS011;51452;47.698;19.050;2023-07-31T02:35:37;3.35;;;2.00;;
64936;SDS011;51452;47.698;19.050;2023-07-31T02:38:02;2.53;;;1.60;;
64936;SDS011;51452;47.698;19.050;2023-07-31T02:40:28;2.63;;;1.88;;
64936;SDS011;51452;47.698;19.050;2023-07-31T02:42:53;4.22;;;1.73;;
64936;SDS011;51452;47.698;19.050;2023-07-31T02:45:19;2.42;;;1.60;;
64936;SDS011;51452;47.698;19.050;2023-07-31T02:47:44;2.97;;;1.67;;
64936;SDS011;51452;47.698;19.050;2023-07-31T02:50:09;2.88;;;1.80;;
64936;SDS011;51452;47.698;19.050;2023-07-31T02:52:35;2.45;;;1.63;;
64936;SDS011;51452;47.698;19.050;2023-07-31T02:55:00;4.20;;;2.00;;
64936;SDS011;51452;47.698;19.050;2023-07-31T02:57:26;3.65;;;1.80;;
64936;SDS011;51452;47.698;19.050;2023-07-31T02:59:51;5.00;;;1.88;;
64936;SDS011;51452;47.698;19.050;2023-07-31T03:02:17;2.72;;;1.90;;
64936;SDS011;51452;47.698;19.050;2023-07-31T03:04:42;3.65;;;1.90;;
64936;SDS011;51452;47.698;19.050;2023-07-31T03:07:07;2.80;;;1.80;;
64936;SDS011;51452;47.698;19.050;2023-07-31T03:09:33;3.20;;;1.73;;
64936;SDS011;51452;47.698;19.050;2023-07-31T03:11:58;4.43;;;1.90;;
64936;SDS011;51452;47.698;19.050;2023-07-31T03:14:23;3.28;;;1.80;;
64936;SDS011;51452;47.698;19.050;2023-07-31T03:16:51;2.80;;;1.80;;
64936;SDS011;51452;47.698;19.050;2023-07-31T03:19:16;7.22;;;1.70;;
64936;SDS011;51452;47.698;19.050;2023-07-31T03:21:42;3.75;;;1.90;;
64936;SDS011;51452;47.698;19.050;2023-07-31T03:24:07;5.80;;;1.85;;
64936;SDS011;51452;47.698;19.050;2023-07-31T03:26:33;2.78;;;1.77;;
64936;SDS011;51452;47.698;19.050;2023-07-31T03:28:58;3.33;;;1.67;;
64936;SDS011;51452;47.698;19.050;2023-07-31T03:31:23;4.53;;;1.63;;
64936;SDS011;51452;47.698;19.050;2023-07-31T03:33:49;2.25;;;1.70;;
64936;SDS011;51452;47.698;19.050;2023-07-31T03:36:14;2.20;;;1.70;;
64936;SDS011;51452;47.698;19.050;2023-07-31T03:38:40;1.80;;;1.50;;
64936;SDS011;51452;47.698;19.050;2023-07-31T03:41:05;3.47;;;1.70;;
64936;SDS011;51452;47.698;19.050;2023-07-31T03:43:31;2.75;;;1.88;;
64936;SDS011;51452;47.698;19.050;2023-07-31T03:45:58;4.55;;;1.70;;
64936;SDS011;51452;47.698;19.050;2023-07-31T03:48:24;2.22;;;1.48;;
64936;SDS011;51452;47.698;19.050;2023-07-31T03:50:50;2.28;;;1.70;;
64936;SDS011;51452;47.698;19.050;2023-07-31T03:53:15;4.65;;;1.60;;
64936;SDS011;51452;47.698;19.050;2023-07-31T03:55:41;2.22;;;1.40;;
64936;SDS011;51452;47.698;19.050;2023-07-31T03:58:06;2.88;;;1.70;;
64936;SDS011;51452;47.698;19.050;2023-07-31T04:00:31;3.63;;;1.60;;
64936;SDS011;51452;47.698;19.050;2023-07-31T04:02:57;2.83;;;1.70;;
64936;SDS011;51452;47.698;19.050;2023-07-31T04:05:22;4.22;;;1.52;;
64936;SDS011;51452;47.698;19.050;2023-07-31T04:07:48;2.38;;;1.40;;
64936;SDS011;51452;47.698;19.050;2023-07-31T04:10:13;2.05;;;1.52;;
64936;SDS011;51452;47.698;19.050;2023-07-31T04:12:38;3.83;;;1.58;;
64936;SDS011;51452;47.698;19.050;2023-07-31T04:15:04;1.77;;;1.40;;
64936;SDS011;51452;47.698;19.050;2023-07-31T04:17:30;4.78;;;1.40;;
64936;SDS011;51452;47.698;19.050;2023-07-31T04:19:55;3.85;;;1.60;;
64936;SDS011;51452;47.698;19.050;2023-07-31T04:22:20;2.65;;;1.40;;
64936;SDS011;51452;47.698;19.050;2023-07-31T04:24:46;3.33;;;1.40;;
64936;SDS011;51452;47.698;19.050;2023-07-31T04:27:11;2.20;;;1.55;;
64936;SDS011;51452;47.698;19.050;2023-07-31T04:29:36;2.55;;;1.40;;
64936;SDS011;51452;47.698;19.050;2023-07-31T04:32:02;3.25;;;1.27;;
64936;SDS011;51452;47.698;19.050;2023-07-31T04:34:27;3.38;;;1.60;;
64936;SDS011;51452;47.698;19.050;2023-07-31T04:36:53;3.35;;;1.35;;
64936;SDS011;51452;47.698;19.050;2023-07-31T04:39:18;2.47;;;1.40;;
64936;SDS011;51452;47.698;19.050;2023-07-31T04:41:43;4.32;;;1.30;;
64936;SDS011;51452;47.698;19.050;2023-07-31T04:44:09;2.90;;;1.30;;
64936;SDS011;51452;47.698;19.050;2023-07-31T04:46:36;3.10;;;1.30;;
64936;SDS011;51452;47.698;19.050;2023-07-31T04:49:02;2.63;;;1.40;;
64936;SDS011;51452;47.698;19.050;2023-07-31T04:51:28;3.28;;;1.40;;
64936;SDS011;51452;47.698;19.050;2023-07-31T04:53:53;2.63;;;1.40;;
64936;SDS011;51452;47.698;19.050;2023-07-31T04:56:18;3.08;;;1.40;;
64936;SDS011;51452;47.698;19.050;2023-07-31T04:58:44;2.58;;;1.50;;
64936;SDS011;51452;47.698;19.050;2023-07-31T05:01:09;2.53;;;1.20;;
64936;SDS011;51452;47.698;19.050;2023-07-31T05:03:34;2.17;;;1.20;;
64936;SDS011;51452;47.698;19.050;2023-07-31T05:06:00;3.22;;;1.20;;
64936;SDS011;51452;47.698;19.050;2023-07-31T05:08:26;1.75;;;1.33;;
64936;SDS011;51452;47.698;19.050;2023-07-31T05:10:51;2.88;;;1.30;;
64936;SDS011;51452;47.698;19.050;2023-07-31T05:13:16;2.03;;;1.30;;
64936;SDS011;51452;47.698;19.050;2023-07-31T05:15:42;3.08;;;1.35;;
64936;SDS011;51452;47.698;19.050;2023-07-31T05:18:07;2.03;;;1.10;;
64936;SDS011;51452;47.698;19.050;2023-07-31T05:20:32;5.15;;;1.30;;
64936;SDS011;51452;47.698;19.050;2023-07-31T05:22:58;4.22;;;1.30;;
64936;SDS011;51452;47.698;19.050;2023-07-31T05:25:23;5.07;;;1.30;;
64936;SDS011;51452;47.698;19.050;2023-07-31T05:27:49;1.65;;;1.02;;
64936;SDS011;51452;47.698;19.050;2023-07-31T05:30:14;2.33;;;1.20;;
64936;SDS011;51452;47.698;19.050;2023-07-31T05:32:39;1.92;;;1.23;;
64936;SDS011;51452;47.698;19.050;2023-07-31T05:35:05;2.10;;;1.05;;
64936;SDS011;51452;47.698;19.050;2023-07-31T05:37:31;2.75;;;1.38;;
64936;SDS011;51452;47.698;19.050;2023-07-31T05:39:56;3.60;;;1.63;;
64936;SDS011;51452;47.698;19.050;2023-07-31T05:42:21;2.35;;;1.33;;
64936;SDS011;51452;47.698;19.050;2023-07-31T05:44:47;5.28;;;1.45;;
64936;SDS011;51452;47.698;19.050;2023-07-31T05:47:12;3.42;;;1.30;;
64936;SDS011;51452;47.698;19.050;2023-07-31T05:49:38;4.03;;;1.33;;
64936;SDS011;51452;47.698;19.050;2023-07-31T05:52:03;2.58;;;1.20;;
64936;SDS011;51452;47.698;19.050;2023-07-31T05:54:29;2.42;;;1.50;;
64936;SDS011;51452;47.698;19.050;2023-07-31T05:56:55;2.63;;;1.27;;
64936;SDS011;51452;47.698;19.050;2023-07-31T05:59:20;3.03;;;1.55;;
64936;SDS011;51452;47.698;19.050;2023-07-31T06:01:45;2.20;;;1.48;;
64936;SDS011;51452;47.698;19.050;2023-07-31T06:04:11;2.92;;;1.42;;
64936;SDS011;51452;47.698;19.050;2023-07-31T06:06:36;2.08;;;1.35;;
64936;SDS011;51452;47.698;19.050;2023-07-31T06:09:01;4.80;;;1.33;;
64936;SDS011;51452;47.698;19.050;2023-07-31T06:11:28;3.80;;;1.42;;
64936;SDS011;51452;47.698;19.050;2023-07-31T06:13:54;3.17;;;1.10;;
64936;SDS011;51452;47.698;19.050;2023-07-31T06:16:19;3.38;;;1.38;;
64936;SDS011;51452;47.698;19.050;2023-07-31T06:18:46;4.85;;;1.50;;
64936;SDS011;51452;47.698;19.050;2023-07-31T06:21:11;2.63;;;1.40;;
64936;SDS011;51452;47.698;19.050;2023-07-31T06:23:37;2.50;;;1.40;;
64936;SDS011;51452;47.698;19.050;2023-07-31T06:26:03;4.82;;;1.50;;
64936;SDS011;51452;47.698;19.050;2023-07-31T06:28:28;2.90;;;1.08;;
64936;SDS011;51452;47.698;19.050;2023-07-31T06:30:55;4.68;;;1.60;;
64936;SDS011;51452;47.698;19.050;2023-07-31T06:33:20;5.63;;;1.60;;
64936;SDS011;51452;47.698;19.050;2023-07-31T06:35:46;3.00;;;1.63;;
64936;SDS011;51452;47.698;19.050;2023-07-31T06:38:11;2.50;;;1.38;;
64936;SDS011;51452;47.698;19.050;2023-07-31T06:40:36;4.03;;;1.42;;
64936;SDS011;51452;47.698;19.050;2023-07-31T06:43:02;4.03;;;1.70;;
64936;SDS011;51452;47.698;19.050;2023-07-31T06:45:33;3.90;;;1.60;;
64936;SDS011;51452;47.698;19.050;2023-07-31T06:47:59;2.88;;;1.77;;
64936;SDS011;51452;47.698;19.050;2023-07-31T06:50:26;3.85;;;1.40;;
64936;SDS011;51452;47.698;19.050;2023-07-31T06:52:53;2.83;;;1.30;;
64936;SDS011;51452;47.698;19.050;2023-07-31T06:55:19;3.40;;;1.80;;
64936;SDS011;51452;47.698;19.050;2023-07-31T06:57:45;6.07;;;1.73;;
64936;SDS011;51452;47.698;19.050;2023-07-31T07:00:12;2.47;;;1.60;;
64936;SDS011;51452;47.698;19.050;2023-07-31T07:02:38;2.45;;;1.35;;
64936;SDS011;51452;47.698;19.050;2023-07-31T07:05:03;3.00;;;1.40;;
64936;SDS011;51452;47.698;19.050;2023-07-31T07:07:29;3.42;;;1.40;;
64936;SDS011;51452;47.698;19.050;2023-07-31T07:09:54;2.67;;;1.40;;
64936;SDS011;51452;47.698;19.050;2023-07-31T07:12:59;2.92;;;1.60;;
64936;SDS011;51452;47.698;19.050;2023-07-31T07:15:24;2.92;;;1.52;;
64936;SDS011;51452;47.698;19.050;2023-07-31T07:17:50;7.10;;;1.70;;
64936;SDS011;51452;47.698;19.050;2023-07-31T07:20:15;3.67;;;1.50;;
64936;SDS011;51452;47.698;19.050;2023-07-31T07:22:41;3.42;;;1.33;;
64936;SDS011;51452;47.698;19.050;2023-07-31T07:25:09;2.22;;;1.25;;
64936;SDS011;51452;47.698;19.050;2023-07-31T07:27:34;3.53;;;1.42;;
64936;SDS011;51452;47.698;19.050;2023-07-31T07:30:00;4.10;;;1.42;;
64936;SDS011;51452;47.698;19.050;2023-07-31T07:32:25;2.88;;;1.50;;
64936;SDS011;51452;47.698;19.050;2023-07-31T07:34:51;4.50;;;1.50;;
64936;SDS011;51452;47.698;19.050;2023-07-31T07:37:16;4.95;;;1.50;;
64936;SDS011;51452;47.698;19.050;2023-07-31T07:39:42;7.35;;;1.52;;
64936;SDS011;51452;47.698;19.050;2023-07-31T07:42:07;5.47;;;1.55;;
64936;SDS011;51452;47.698;19.050;2023-07-31T07:44:33;2.13;;;1.27;;
64936;SDS011;51452;47.698;19.050;2023-07-31T07:46:58;2.95;;;1.60;;
64936;SDS011;51452;47.698;19.050;2023-07-31T07:49:24;2.53;;;1.50;;
64936;SDS011;51452;47.698;19.050;2023-07-31T07:51:49;3.05;;;1.20;;
64936;SDS011;51452;47.698;19.050;2023-07-31T07:54:15;2.42;;;1.48;;
64936;SDS011;51452;47.698;19.050;2023-07-31T07:56:42;3.72;;;1.48;;
64936;SDS011;51452;47.698;19.050;2023-07-31T07:59:08;3.45;;;1.35;;
64936;SDS011;51452;47.698;19.050;2023-07-31T08:01:33;2.45;;;1.33;;
64936;SDS011;51452;47.698;19.050;2023-07-31T08:03:58;3.53;;;1.48;;
64936;SDS011;51452;47.698;19.050;2023-07-31T08:06:24;3.15;;;1.33;;
64936;SDS011;51452;47.698;19.050;2023-07-31T08:08:50;1.88;;;1.35;;
64936;SDS011;51452;47.698;19.050;2023-07-31T08:11:15;3.22;;;1.50;;
64936;SDS011;51452;47.698;19.050;2023-07-31T08:13:40;1.60;;;1.10;;
64936;SDS011;51452;47.698;19.050;2023-07-31T08:16:06;4.97;;;1.85;;
64936;SDS011;51452;47.698;19.050;2023-07-31T08:18:31;7.05;;;2.70;;
64936;SDS011;51452;47.698;19.050;2023-07-31T08:20:57;3.45;;;1.45;;
64936;SDS011;51452;47.698;19.050;2023-07-31T08:23:23;3.33;;;1.40;;
64936;SDS011;51452;47.698;19.050;2023-07-31T08:25:48;3.63;;;1.50;;
64936;SDS011;51452;47.698;19.050;2023-07-31T08:28:15;3.67;;;1.65;;
64936;SDS011;51452;47.698;19.050;2023-07-31T08:30:41;4.72;;;1.50;;
64936;SDS011;51452;47.698;19.050;2023-07-31T08:33:07;3.97;;;1.50;;
64936;SDS011;51452;47.698;19.050;2023-07-31T08:35:32;3.67;;;1.60;;
64936;SDS011;51452;47.698;19.050;2023-07-31T08:37:58;2.58;;;1.25;;
64936;SDS011;51452;47.698;19.050;2023-07-31T08:40:24;3.15;;;1.30;;
64936;SDS011;51452;47.698;19.050;2023-07-31T08:42:50;3.97;;;1.40;;
64936;SDS011;51452;47.698;19.050;2023-07-31T08:45:18;3.42;;;1.40;;
64936;SDS011;51452;47.698;19.050;2023-07-31T08:47:46;3.90;;;1.25;;
64936;SDS011;51452;47.698;19.050;2023-07-31T08:50:13;3.05;;;1.60;;
64936;SDS011;51452;47.698;19.050;2023-07-31T08:52:39;3.53;;;1.50;;
64936;SDS011;51452;47.698;19.050;2023-07-31T08:55:05;2.95;;;1.52;;
64936;SDS011;51452;47.698;19.050;2023-07-31T08:57:32;6.57;;;1.63;;
64936;SDS011;51452;47.698;19.050;2023-07-31T09:00:00;3.78;;;1.67;;
64936;SDS011;51452;47.698;19.050;2023-07-31T09:02:28;2.65;;;1.20;;
64936;SDS011;51452;47.698;19.050;2023-07-31T09:04:59;3.53;;;1.45;;
64936;SDS011;51452;47.698;19.050;2023-07-31T09:07:25;5.22;;;1.70;;
64936;SDS011;51452;47.698;19.050;2023-07-31T09:09:51;2.75;;;1.40;;
64936;SDS011;51452;47.698;19.050;2023-07-31T09:12:16;4.95;;;1.98;;
64936;SDS011;51452;47.698;19.050;2023-07-31T09:14:42;4.18;;;1.55;;
64936;SDS011;51452;47.698;19.050;2023-07-31T09:17:10;6.82;;;1.35;;
64936;SDS011;51452;47.698;19.050;2023-07-31T09:19:36;3.25;;;1.30;;
64936;SDS011;51452;47.698;19.050;2023-07-31T09:22:05;4.63;;;1.35;;
64936;SDS011;51452;47.698;19.050;2023-07-31T09:24:32;3.22;;;1.48;;
64936;SDS011;51452;47.698;19.050;2023-07-31T09:26:59;2.13;;;1.10;;
64936;SDS011;51452;47.698;19.050;2023-07-31T09:29:26;2.90;;;1.50;;
64936;SDS011;51452;47.698;19.050;2023-07-31T09:31:54;5.90;;;1.40;;
64936;SDS011;51452;47.698;19.050;2023-07-31T09:34:20;5.45;;;1.38;;
64936;SDS011;51452;47.698;19.050;2023-07-31T09:36:54;5.43;;;1.50;;
64936;SDS011;51452;47.698;19.050;2023-07-31T09:39:19;2.28;;;1.02;;
64936;SDS011;51452;47.698;19.050;2023-07-31T09:41:47;3.13;;;1.27;;
64936;SDS011;51452;47.698;19.050;2023-07-31T09:44:18;3.05;;;1.33;;
64936;SDS011;51452;47.698;19.050;2023-07-31T09:46:44;2.72;;;1.30;;
64936;SDS011;51452;47.698;19.050;2023-07-31T09:49:11;4.10;;;1.38;;
64936;SDS011;51452;47.698;19.050;2023-07-31T09:51:38;4.85;;;1.20;;
64936;SDS011;51452;47.698;19.050;2023-07-31T09:54:12;4.00;;;1.60;;
64936;SDS011;51452;47.698;19.050;2023-07-31T09:56:48;4.00;;;1.48;;
64936;SDS011;51452;47.698;19.050;2023-07-31T09:59:15;4.28;;;1.58;;
64936;SDS011;51452;47.698;19.050;2023-07-31T10:01:42;2.90;;;1.20;;
64936;SDS011;51452;47.698;19.050;2023-07-31T10:04:09;4.60;;;1.38;;
64936;SDS011;51452;47.698;19.050;2023-07-31T10:06:36;2.72;;;1.20;;
64936;SDS011;51452;47.698;19.050;2023-07-31T10:09:05;5.18;;;1.33;;
64936;SDS011;51452;47.698;19.050;2023-07-31T10:11:31;4.03;;;1.50;;
64936;SDS011;51452;47.698;19.050;2023-07-31T10:14:00;5.93;;;1.50;;
64936;SDS011;51452;47.698;19.050;2023-07-31T10:16:26;2.85;;;1.35;;
64936;SDS011;51452;47.698;19.050;2023-07-31T10:18:52;2.95;;;1.20;;
64936;SDS011;51452;47.698;19.050;2023-07-31T10:21:19;3.00;;;1.20;;
64936;SDS011;51452;47.698;19.050;2023-07-31T10:23:44;2.97;;;1.50;;
64936;SDS011;51452;47.698;19.050;2023-07-31T10:26:11;3.65;;;1.40;;
64936;SDS011;51452;47.698;19.050;2023-07-31T10:28:39;4.38;;;1.35;;
64936;SDS011;51452;47.698;19.050;2023-07-31T10:31:05;5.53;;;1.73;;
64936;SDS011;51452;47.698;19.050;2023-07-31T10:33:32;12.70;;;1.88;;
64936;SDS011;51452;47.698;19.050;2023-07-31T10:36:17;3.17;;;1.27;;
64936;SDS011;51452;47.698;19.050;2023-07-31T10:38:44;4.82;;;1.50;;
64936;SDS011;51452;47.698;19.050;2023-07-31T10:41:09;6.28;;;1.30;;
64936;SDS011;51452;47.698;19.050;2023-07-31T10:43:38;5.43;;;1.38;;
64936;SDS011;51452;47.698;19.050;2023-07-31T10:46:08;4.90;;;1.52;;
64936;SDS011;51452;47.698;19.050;2023-07-31T10:48:37;5.22;;;1.65;;
64936;SDS011;51452;47.698;19.050;2023-07-31T10:51:08;4.07;;;1.13;;
64936;SDS011;51452;47.698;19.050;2023-07-31T10:53:35;2.83;;;1.13;;
64936;SDS011;51452;47.698;19.050;2023-07-31T10:56:05;3.78;;;1.30;;
64936;SDS011;51452;47.698;19.050;2023-07-31T10:58:34;3.60;;;1.20;;
64936;SDS011;51452;47.698;19.050;2023-07-31T11:01:02;2.55;;;1.40;;
64936;SDS011;51452;47.698;19.050;2023-07-31T11:03:41;1.90;;;1.10;;
64936;SDS011;51452;47.698;19.050;2023-07-31T11:06:14;4.10;;;1.30;;
64936;SDS011;51452;47.698;19.050;2023-07-31T11:08:42;4.32;;;1.40;;
64936;SDS011;51452;47.698;19.050;2023-07-31T11:11:16;2.53;;;1.17;;
64936;SDS011;51452;47.698;19.050;2023-07-31T11:13:46;2.78;;;1.27;;
64936;SDS011;51452;47.698;19.050;2023-07-31T11:18:44;4.22;;;1.10;;
64936;SDS011;51452;47.698;19.050;2023-07-31T11:21:17;2.60;;;1.20;;
64936;SDS011;51452;47.698;19.050;2023-07-31T11:23:47;3.83;;;1.37;;
64936;SDS011;51452;47.698;19.050;2023-07-31T11:26:14;3.17;;;1.60;;
64936;SDS011;51452;47.698;19.050;2023-07-31T11:28:40;2.90;;;1.10;;
64936;SDS011;51452;47.698;19.050;2023-07-31T11:31:08;3.33;;;1.10;;
64936;SDS011;51452;47.698;19.050;2023-07-31T11:33:35;5.03;;;1.30;;
64936;SDS011;51452;47.698;19.050;2023-07-31T11:36:00;5.25;;;1.27;;
64936;SDS011;51452;47.698;19.050;2023-07-31T11:38:26;3.78;;;1.27;;
64936;SDS011;51452;47.698;19.050;2023-07-31T11:40:53;2.58;;;1.10;;
64936;SDS011;51452;47.698;19.050;2023-07-31T11:43:25;3.40;;;1.40;;
64936;SDS011;51452;47.698;19.050;2023-07-31T11:45:52;4.63;;;1.20;;
64936;SDS011;51452;47.698;19.050;2023-07-31T11:48:23;3.00;;;1.20;;
64936;SDS011;51452;47.698;19.050;2023-07-31T11:50:51;3.05;;;1.20;;
64936;SDS011;51452;47.698;19.050;2023-07-31T11:53:18;4.03;;;1.80;;
64936;SDS011;51452;47.698;19.050;2023-07-31T11:55:48;2.35;;;1.38;;
64936;SDS011;51452;47.698;19.050;2023-07-31T11:58:14;4.85;;;1.27;;
64936;SDS011;51452;47.698;19.050;2023-07-31T12:00:41;6.03;;;1.60;;
64936;SDS011;51452;47.698;19.050;2023-07-31T12:03:07;4.93;;;1.33;;
64936;SDS011;51452;47.698;19.050;2023-07-31T12:05:33;2.78;;;1.20;;
64936;SDS011;51452;47.698;19.050;2023-07-31T12:07:58;4.13;;;1.40;;
64936;SDS011;51452;47.698;19.050;2023-07-31T12:15:28;3.90;;;1.25;;
64936;SDS011;51452;47.698;19.050;2023-07-31T12:18:04;2.35;;;1.13;;
64936;SDS011;51452;47.698;19.050;2023-07-31T12:20:31;3.00;;;1.10;;
64936;SDS011;51452;47.698;19.050;2023-07-31T12:22:57;3.30;;;1.20;;
64936;SDS011;51452;47.698;19.050;2023-07-31T12:25:28;2.85;;;1.30;;
64936;SDS011;51452;47.698;19.050;2023-07-31T12:27:57;2.60;;;1.48;;
64936;SDS011;51452;47.698;19.050;2023-07-31T12:30:32;3.00;;;1.08;;
64936;SDS011;51452;47.698;19.050;2023-07-31T12:33:02;3.33;;;1.42;;
64936;SDS011;51452;47.698;19.050;2023-07-31T12:35:38;2.70;;;1.15;;
64936;SDS011;51452;47.698;19.050;2023-07-31T12:38:05;2.35;;;1.20;;
64936;SDS011;51452;47.698;19.050;2023-07-31T12:40:31;2.03;;;1.13;;
64936;SDS011;51452;47.698;19.050;2023-07-31T12:42:57;3.72;;;1.20;;
64936;SDS011;51452;47.698;19.050;2023-07-31T12:45:23;3.42;;;1.20;;
64936;SDS011;51452;47.698;19.050;2023-07-31T12:47:48;2.42;;;1.40;;
64936;SDS011;51452;47.698;19.050;2023-07-31T12:50:14;4.15;;;1.30;;
64936;SDS011;51452;47.698;19.050;2023-07-31T12:52:39;3.15;;;1.10;;
64936;SDS011;51452;47.698;19.050;2023-07-31T12:55:07;5.25;;;1.20;;
64936;SDS011;51452;47.698;19.050;2023-07-31T12:57:33;2.33;;;1.10;;
64936;SDS011;51452;47.698;19.050;2023-07-31T12:59:59;4.03;;;1.25;;
64936;SDS011;51452;47.698;19.050;2023-07-31T13:02:24;3.08;;;1.88;;
64936;SDS011;51452;47.698;19.050;2023-07-31T13:04:50;3.53;;;1.20;;
64936;SDS011;51452;47.698;19.050;2023-07-31T13:07:15;3.95;;;1.20;;
64936;SDS011;51452;47.698;19.050;2023-07-31T13:09:41;2.55;;;1.15;;
64936;SDS011;51452;47.698;19.050;2023-07-31T13:12:07;2.35;;;1.00;;
64936;SDS011;51452;47.698;19.050;2023-07-31T13:14:33;4.55;;;1.50;;
64936;SDS011;51452;47.698;19.050;2023-07-31T13:16:58;2.85;;;1.20;;
64936;SDS011;51452;47.698;19.050;2023-07-31T13:19:23;1.85;;;1.00;;
64936;SDS011;51452;47.698;19.050;2023-07-31T13:21:49;2.67;;;1.20;;
64936;SDS011;51452;47.698;19.050;2023-07-31T13:24:14;2.97;;;1.50;;
64936;SDS011;51452;47.698;19.050;2023-07-31T13:26:39;2.88;;;1.30;;
64936;SDS011;51452;47.698;19.050;2023-07-31T13:29:05;2.97;;;1.35;;
64936;SDS011;51452;47.698;19.050;2023-07-31T13:31:30;6.28;;;1.58;;
64936;SDS011;51452;47.698;19.050;2023-07-31T13:33:56;2.75;;;1.10;;
64936;SDS011;51452;47.698;19.050;2023-07-31T13:36:21;3.55;;;1.30;;
64936;SDS011;51452;47.698;19.050;2023-07-31T13:38:46;3.20;;;1.30;;
64936;SDS011;51452;47.698;19.050;2023-07-31T13:41:12;4.63;;;1.40;;
64936;SDS011;51452;47.698;19.050;2023-07-31T13:43:37;3.55;;;1.42;;
64936;SDS011;51452;47.698;19.050;2023-07-31T13:46:02;3.25;;;1.05;;
64936;SDS011;51452;47.698;19.050;2023-07-31T13:48:33;2.53;;;1.20;;
64936;SDS011;51452;47.698;19.050;2023-07-31T13:50:59;3.38;;;1.20;;
64936;SDS011;51452;47.698;19.050;2023-07-31T13:53:25;3.50;;;1.40;;
64936;SDS011;51452;47.698;19.050;2023-07-31T13:55:50;3.35;;;1.10;;
64936;SDS011;51452;47.698;19.050;2023-07-31T13:58:16;3.10;;;1.25;;
64936;SDS011;51452;47.698;19.050;2023-07-31T14:00:42;4.28;;;1.30;;
64936;SDS011;51452;47.698;19.050;2023-07-31T14:03:07;3.65;;;1.27;;
64936;SDS011;51452;47.698;19.050;2023-07-31T14:05:33;3.85;;;1.27;;
64936;SDS011;51452;47.698;19.050;2023-07-31T14:07:58;3.38;;;1.27;;
64936;SDS011;51452;47.698;19.050;2023-07-31T14:10:23;3.50;;;1.00;;
64936;SDS011;51452;47.698;19.050;2023-07-31T14:12:49;3.55;;;1.05;;
64936;SDS011;51452;47.698;19.050;2023-07-31T14:15:14;2.97;;;1.05;;
64936;SDS011;51452;47.698;19.050;2023-07-31T14:17:40;5.13;;;1.63;;
64936;SDS011;51452;47.698;19.050;2023-07-31T14:20:05;2.53;;;1.20;;
64936;SDS011;51452;47.698;19.050;2023-07-31T14:22:31;3.22;;;1.30;;
64936;SDS011;51452;47.698;19.050;2023-07-31T14:24:58;3.22;;;1.40;;
64936;SDS011;51452;47.698;19.050;2023-07-31T14:27:24;2.50;;;1.10;;
64936;SDS011;51452;47.698;19.050;2023-07-31T14:29:49;3.17;;;1.20;;
64936;SDS011;51452;47.698;19.050;2023-07-31T14:32:15;2.58;;;1.15;;
64936;SDS011;51452;47.698;19.050;2023-07-31T14:34:40;2.92;;;1.10;;
64936;SDS011;51452;47.698;19.050;2023-07-31T14:37:06;4.47;;;1.75;;
64936;SDS011;51452;47.698;19.050;2023-07-31T14:39:34;5.55;;;1.30;;
64936;SDS011;51452;47.698;19.050;2023-07-31T14:41:59;3.75;;;1.30;;
64936;SDS011;51452;47.698;19.050;2023-07-31T14:44:25;2.38;;;1.10;;
64936;SDS011;51452;47.698;19.050;2023-07-31T14:46:50;3.40;;;1.30;;
64936;SDS011;51452;47.698;19.050;2023-07-31T14:49:16;3.95;;;1.33;;